createdAt,value
2019-01-27T00:00:54.631Z,92885.78
2019-01-27T00:03:23.233Z,92886.67
2019-01-27T00:05:51.876Z,92885.59
2019-01-27T00:08:20.457Z,92882.86
2019-01-27T00:10:49.040Z,92879.69
2019-01-27T00:13:17.766Z,92866.69
2019-01-27T00:15:46.394Z,92870.41
2019-01-27T00:18:15.042Z,92848.34
2019-01-27T00:20:43.654Z,92850.39
2019-01-27T00:23:12.287Z,92842.72
2019-01-27T00:25:41.146Z,92836.12
2019-01-27T00:28:09.811Z,92825.70
2019-01-27T00:30:38.382Z,92831.01
2019-01-27T00:33:06.947Z,92827.08
2019-01-27T00:35:35.557Z,92818.34
2019-01-27T00:38:04.210Z,92815.36
2019-01-27T00:40:32.827Z,92812.56
2019-01-27T00:43:01.422Z,92804.61
2019-01-27T00:45:30.225Z,92784.42
2019-01-27T00:47:59.002Z,92785.34
2019-01-27T00:50:27.577Z,92776.92
2019-01-27T00:52:56.178Z,92770.34
2019-01-27T00:55:24.884Z,92773.48
2019-01-27T00:57:53.470Z,92764.90
2019-01-27T01:00:23.479Z,92759.23
2019-01-27T01:02:52.045Z,92756.92
2019-01-27T01:05:20.899Z,92748.55
2019-01-27T01:07:49.703Z,92744.56
2019-01-27T01:10:19.010Z,92741.88
2019-01-27T01:12:47.641Z,92734.23
2019-01-27T01:15:16.374Z,92740.28
2019-01-27T01:17:44.995Z,92730.00
2019-01-27T01:20:17.981Z,92730.17
2019-01-27T01:22:47.044Z,92729.38
2019-01-27T01:25:18.186Z,92723.58
2019-01-27T01:27:46.814Z,92728.77
2019-01-27T01:30:17.392Z,92720.58
2019-01-27T01:32:46.082Z,92725.23
2019-01-27T01:35:15.077Z,92714.63
2019-01-27T01:37:43.900Z,92710.01
2019-01-27T01:40:14.791Z,92695.70
2019-01-27T01:42:43.354Z,92699.69
2019-01-27T01:45:32.096Z,92686.63
2019-01-27T01:48:00.990Z,92687.01
2019-01-27T01:50:29.850Z,92674.83
2019-01-27T01:52:58.744Z,92677.61
2019-01-27T01:55:27.881Z,92665.42
2019-01-27T01:57:56.784Z,92670.42
2019-01-27T02:00:26.309Z,92656.91
2019-01-27T02:02:55.005Z,92657.48
2019-01-27T02:05:23.647Z,92651.53
2019-01-27T02:07:52.247Z,92659.81
2019-01-27T02:10:21.492Z,92648.86
2019-01-27T02:12:50.337Z,92641.17
2019-01-27T02:15:47.867Z,92636.93
2019-01-27T02:18:16.469Z,92633.39
2019-01-27T02:20:45.150Z,92626.70
2019-01-27T02:23:13.791Z,92620.81
2019-01-27T02:25:42.353Z,92606.49
2019-01-27T02:28:10.898Z,92609.64
2019-01-27T02:30:39.728Z,92605.36
2019-01-27T02:33:08.297Z,92595.72
2019-01-27T02:35:36.894Z,92591.39
2019-01-27T02:38:05.534Z,92574.73
2019-01-27T02:40:34.094Z,92566.63
2019-01-27T02:43:02.654Z,92552.02
2019-01-27T02:45:31.241Z,92551.59
2019-01-27T02:47:59.798Z,92539.06
2019-01-27T02:50:28.363Z,92546.34
2019-01-27T02:52:56.923Z,92535.75
2019-01-27T02:55:25.501Z,92542.63
2019-01-27T02:57:54.303Z,92541.39
2019-01-27T03:00:23.232Z,92521.70
2019-01-27T03:02:51.857Z,92521.77
2019-01-27T03:05:57.788Z,92517.50
2019-01-27T03:08:29.156Z,92520.20
2019-01-27T03:10:57.747Z,92502.36
2019-01-27T03:13:26.387Z,92498.53
2019-01-27T03:15:55.255Z,92496.88
2019-01-27T03:18:23.897Z,92496.03
2019-01-27T03:20:52.465Z,92495.17
2019-01-27T03:23:21.055Z,92483.93
2019-01-27T03:25:49.872Z,92484.66
2019-01-27T03:28:18.449Z,92483.40
2019-01-27T03:30:47.058Z,92486.08
2019-01-27T03:33:15.669Z,92478.67
2019-01-27T03:35:44.447Z,92466.84
2019-01-27T03:38:13.392Z,92472.42
2019-01-27T03:40:41.964Z,92465.27
2019-01-27T03:43:10.790Z,92470.32
2019-01-27T03:45:39.602Z,92466.55
2019-01-27T03:48:08.524Z,92459.25
2019-01-27T03:50:37.335Z,92456.41
2019-01-27T03:53:06.119Z,92454.02
2019-01-27T03:55:34.732Z,92452.95
2019-01-27T03:58:03.395Z,92447.60
2019-01-27T04:00:44.607Z,92441.39
2019-01-27T04:03:13.257Z,92441.52
2019-01-27T04:05:41.818Z,92438.81
2019-01-27T04:08:10.541Z,92426.93
2019-01-27T04:10:39.584Z,92425.09
2019-01-27T04:13:08.183Z,92425.13
2019-01-27T04:15:36.863Z,92424.03
2019-01-27T04:18:05.619Z,92412.59
2019-01-27T04:20:34.261Z,92415.63
2019-01-27T04:23:02.823Z,92418.80
2019-01-27T04:25:31.465Z,92408.92
2019-01-27T04:28:00.094Z,92402.61
2019-01-27T04:30:33.738Z,92393.97
2019-01-27T04:33:02.369Z,92389.52
2019-01-27T04:35:30.943Z,92387.00
2019-01-27T04:37:59.687Z,92394.99
2019-01-27T04:40:28.275Z,92387.77
2019-01-27T04:42:56.916Z,92381.33
2019-01-27T04:45:29.269Z,92377.46
2019-01-27T04:47:58.086Z,92378.41
2019-01-27T04:50:26.966Z,92370.11
2019-01-27T04:52:55.687Z,92370.12
2019-01-27T04:55:24.230Z,92359.44
2019-01-27T04:57:53.026Z,92348.43
2019-01-27T05:00:22.839Z,92347.66
2019-01-27T05:03:06.886Z,92340.87
2019-01-27T05:05:35.685Z,92333.20
2019-01-27T05:08:04.656Z,92338.48
2019-01-27T05:10:33.274Z,92335.91
2019-01-27T05:13:01.838Z,92342.10
2019-01-27T05:15:30.875Z,92340.73
2019-01-27T05:17:59.595Z,92335.59
2019-01-27T05:20:28.390Z,92332.45
2019-01-27T05:22:57.024Z,92323.88
2019-01-27T05:25:25.834Z,92325.94
2019-01-27T05:27:54.675Z,92321.19
2019-01-27T05:30:23.339Z,92317.66
2019-01-27T05:32:52.035Z,92309.06
2019-01-27T05:35:20.670Z,92301.08
2019-01-27T05:37:49.588Z,92290.55
2019-01-27T05:40:18.322Z,92293.27
2019-01-27T05:42:47.222Z,92293.47
2019-01-27T05:45:15.865Z,92288.06
2019-01-27T05:47:44.459Z,92282.41
2019-01-27T05:50:13.819Z,92285.70
2019-01-27T05:52:42.904Z,92288.15
2019-01-27T05:55:12.902Z,92287.75
2019-01-27T05:57:41.491Z,92282.56
2019-01-27T06:00:14.499Z,92286.72
2019-01-27T06:02:43.108Z,92279.78
2019-01-27T06:05:11.789Z,92269.55
2019-01-27T06:07:40.340Z,92273.16
2019-01-27T06:10:10.000Z,92263.39
2019-01-27T06:12:39.060Z,92257.75
2019-01-27T06:15:08.988Z,92260.97
2019-01-27T06:17:37.560Z,92263.02
2019-01-27T06:20:08.143Z,92256.55
2019-01-27T06:22:36.927Z,92247.09
2019-01-27T06:25:07.205Z,92242.20
2019-01-27T06:27:35.997Z,92239.91
2019-01-27T06:30:06.746Z,92240.70
2019-01-27T06:32:45.361Z,92248.45
2019-01-27T06:35:14.075Z,92220.61
2019-01-27T06:37:42.884Z,92234.50
2019-01-27T06:40:11.667Z,92225.88
2019-01-27T06:42:40.476Z,92222.78
2019-01-27T06:45:09.508Z,92215.64
2019-01-27T06:47:38.318Z,92218.87
2019-01-27T06:50:07.861Z,92210.77
2019-01-27T06:52:36.475Z,92211.17
2019-01-27T06:55:06.440Z,92211.55
2019-01-27T06:57:35.074Z,92210.38
2019-01-27T07:00:18.132Z,92211.23
2019-01-27T07:02:51.746Z,92203.06
2019-01-27T07:05:27.870Z,92198.69
2019-01-27T07:08:02.806Z,92190.63
2019-01-27T07:10:48.972Z,92191.30
2019-01-27T07:13:35.296Z,92191.05
2019-01-27T07:16:25.996Z,92193.58
2019-01-27T07:19:02.375Z,92189.02
2019-01-27T07:21:53.080Z,92188.66
2019-01-27T07:24:43.530Z,92184.78
2019-01-27T07:27:31.419Z,92189.64
2019-01-27T07:30:34.001Z,92185.73
2019-01-27T07:33:33.354Z,92180.11
2019-01-27T07:36:28.610Z,92178.00
2019-01-27T07:39:25.356Z,92177.01
2019-01-27T07:42:16.113Z,92163.17
2019-01-27T07:44:49.579Z,92163.50
2019-01-27T07:47:36.299Z,92160.06
2019-01-27T07:50:40.770Z,92169.02
2019-01-27T07:53:21.759Z,92155.23
2019-01-27T07:55:57.800Z,92160.81
2019-01-27T07:58:43.933Z,92155.78
2019-01-27T08:01:30.309Z,92152.45
2019-01-27T08:04:11.600Z,92145.98
2019-01-27T08:06:47.791Z,92149.53
2019-01-27T08:09:31.867Z,92137.49
2019-01-27T08:12:10.574Z,92138.61
2019-01-27T08:15:00.014Z,92131.94
2019-01-27T08:17:56.878Z,92134.62
2019-01-27T08:20:56.483Z,92133.41
2019-01-27T08:23:35.422Z,92130.41
2019-01-27T08:26:25.957Z,92131.00
2019-01-27T08:28:59.506Z,92126.27
2019-01-27T08:31:50.154Z,92127.19
2019-01-27T08:34:37.773Z,92123.59
2019-01-27T08:37:26.658Z,92123.74
2019-01-27T08:40:12.229Z,92129.33
2019-01-27T08:42:57.008Z,92124.28
2019-01-27T08:45:40.882Z,92128.54
2019-01-27T08:48:09.546Z,92126.16
2019-01-27T08:50:38.115Z,92128.95
2019-01-27T08:53:06.978Z,92126.34
2019-01-27T08:55:36.370Z,92133.31
2019-01-27T08:58:12.018Z,92130.86
2019-01-27T09:00:43.598Z,92127.13
2019-01-27T09:03:17.131Z,92124.10
2019-01-27T09:06:14.058Z,92121.88
2019-01-27T09:08:50.513Z,92114.47
2019-01-27T09:11:39.956Z,92110.16
2019-01-27T09:14:26.351Z,92112.99
2019-01-27T09:17:20.214Z,92112.41
2019-01-27T09:20:07.870Z,92110.48
2019-01-27T09:22:52.611Z,92109.02
2019-01-27T09:25:49.360Z,92104.28
2019-01-27T09:28:22.896Z,92105.24
2019-01-27T09:31:10.531Z,92104.08
2019-01-27T09:33:56.710Z,92095.00
2019-01-27T09:36:42.952Z,92096.13
2019-01-27T09:39:41.881Z,92095.14
2019-01-27T09:42:27.921Z,92089.00
2019-01-27T09:45:08.121Z,92103.34
2019-01-27T09:47:45.545Z,92096.33
2019-01-27T09:50:39.225Z,92098.95
2019-01-27T09:53:18.282Z,92100.73
2019-01-27T09:55:59.624Z,92100.02
2019-01-27T09:58:44.793Z,92090.30
2019-01-27T10:01:38.862Z,92092.66
2019-01-27T10:04:32.676Z,92097.54
2019-01-27T10:07:19.150Z,92097.31
2019-01-27T10:10:00.749Z,92105.39
2019-01-27T10:12:48.434Z,92100.50
2019-01-27T10:15:35.030Z,92104.92
2019-01-27T10:18:21.188Z,92089.80
2019-01-27T10:21:07.636Z,92090.61
2019-01-27T10:23:58.376Z,92097.73
2019-01-27T10:26:34.430Z,92092.31
2019-01-27T10:29:31.257Z,92093.35
2019-01-27T10:32:15.639Z,92092.78
2019-01-27T10:34:53.630Z,92089.90
2019-01-27T10:37:56.268Z,92083.44
2019-01-27T10:40:39.709Z,92067.44
2019-01-27T10:43:23.102Z,92065.49
2019-01-27T10:46:16.853Z,92064.50
2019-01-27T10:49:02.972Z,92061.94
2019-01-27T10:51:49.081Z,92047.83
2019-01-27T10:54:30.470Z,92043.63
2019-01-27T10:57:06.808Z,92049.92
2019-01-27T10:59:51.621Z,92040.55
2019-01-27T11:02:36.925Z,92046.30
2019-01-27T11:05:20.142Z,92041.16
2019-01-27T11:07:55.913Z,92035.89
2019-01-27T11:10:33.975Z,92039.73
2019-01-27T11:13:27.549Z,92032.38
2019-01-27T11:16:27.114Z,92030.57
2019-01-27T11:19:06.553Z,92023.11
2019-01-27T11:22:06.377Z,92024.36
2019-01-27T11:24:51.815Z,92009.41
2019-01-27T11:27:42.307Z,92008.31
2019-01-27T11:30:37.845Z,92004.27
2019-01-27T11:33:17.946Z,92009.42
2019-01-27T11:35:58.695Z,92009.22
2019-01-27T11:38:45.157Z,92003.33
2019-01-27T11:41:27.288Z,92001.86
2019-01-27T11:44:22.599Z,92007.01
2019-01-27T11:47:15.806Z,91999.17
2019-01-27T11:49:56.294Z,91987.35
2019-01-27T11:52:31.925Z,91987.03
2019-01-27T11:55:00.589Z,91981.87
2019-01-27T11:57:29.474Z,91975.63
2019-01-27T11:59:58.398Z,91973.00
2019-01-27T12:02:27.018Z,91968.23
2019-01-27T12:04:55.630Z,91968.10
2019-01-27T12:07:24.231Z,91971.13
2019-01-27T12:09:52.795Z,91963.93
2019-01-27T12:12:21.387Z,91954.22
2019-01-27T12:14:49.947Z,91959.89
2019-01-27T12:17:18.517Z,91958.45
2019-01-27T12:19:47.207Z,91948.89
2019-01-27T12:22:15.964Z,91945.98
2019-01-27T12:24:44.641Z,91942.31
2019-01-27T12:27:13.687Z,91942.38
2019-01-27T12:29:42.267Z,91934.38
2019-01-27T12:32:11.111Z,91935.15
2019-01-27T12:34:39.661Z,91928.47
2019-01-27T12:37:08.247Z,91931.27
2019-01-27T12:39:36.809Z,91922.66
2019-01-27T12:42:05.649Z,91917.51
2019-01-27T12:44:34.492Z,91925.52
2019-01-27T12:47:03.106Z,91922.34
2019-01-27T12:49:32.088Z,91920.64
2019-01-27T12:52:00.678Z,91919.11
2019-01-27T12:54:29.301Z,91914.66
2019-01-27T12:56:57.962Z,91909.05
2019-01-27T12:59:26.509Z,91913.78
2019-01-27T13:01:55.081Z,91908.02
2019-01-27T13:04:23.640Z,91902.07
2019-01-27T13:06:52.419Z,91891.14
2019-01-27T13:09:20.971Z,91891.94
2019-01-27T13:11:49.535Z,91906.17
2019-01-27T13:14:18.102Z,91901.53
2019-01-27T13:16:46.651Z,91902.34
2019-01-27T13:19:15.204Z,91902.03
2019-01-27T13:21:43.757Z,91890.98
2019-01-27T13:24:12.321Z,91892.98
2019-01-27T13:26:40.867Z,91898.89
2019-01-27T13:29:09.670Z,91893.59
2019-01-27T13:31:38.246Z,91888.49
2019-01-27T13:34:06.889Z,91887.47
2019-01-27T13:36:35.521Z,91891.96
2019-01-27T13:39:06.732Z,91887.90
2019-01-27T13:41:35.283Z,91881.31
2019-01-27T13:44:03.916Z,91885.73
2019-01-27T13:46:32.563Z,91889.78
2019-01-27T13:49:01.120Z,91881.51
2019-01-27T13:51:29.677Z,91883.10
2019-01-27T13:53:58.226Z,91881.34
2019-01-27T13:56:26.793Z,91884.23
2019-01-27T13:58:55.362Z,91873.53
2019-01-27T14:01:23.962Z,91878.67
2019-01-27T14:03:52.511Z,91880.45
2019-01-27T14:06:21.417Z,91886.49
2019-01-27T14:08:49.969Z,91879.20
2019-01-27T14:11:19.159Z,91871.70
2019-01-27T14:13:47.727Z,91871.92
2019-01-27T14:16:16.275Z,91871.98
2019-01-27T14:18:44.879Z,91875.87
2019-01-27T14:21:16.669Z,91875.87
2019-01-27T14:23:43.982Z,91879.39
2019-01-27T14:26:12.619Z,91880.06
2019-01-27T14:28:41.180Z,91889.35
2019-01-27T14:31:09.759Z,91886.14
2019-01-27T14:33:38.306Z,91883.52
2019-01-27T14:36:07.417Z,91879.36
2019-01-27T14:38:35.978Z,91881.33
2019-01-27T14:41:06.346Z,91885.87
2019-01-27T14:43:34.904Z,91884.34
2019-01-27T14:46:03.457Z,91892.41
2019-01-27T14:48:32.265Z,91883.16
2019-01-27T14:51:00.823Z,91888.82
2019-01-27T14:53:29.641Z,91883.91
2019-01-27T14:55:58.176Z,91884.70
2019-01-27T14:58:26.761Z,91879.75
2019-01-27T15:00:55.324Z,91882.54
2019-01-27T15:03:23.940Z,91880.92
2019-01-27T15:05:52.727Z,91883.55
2019-01-27T15:08:21.394Z,91878.34
2019-01-27T15:10:49.950Z,91884.34
2019-01-27T15:13:18.594Z,91880.38
2019-01-27T15:15:47.178Z,91885.70
2019-01-27T15:18:15.732Z,91882.41
2019-01-27T15:20:47.330Z,91878.87
2019-01-27T15:23:16.125Z,91884.19
2019-01-27T15:25:44.906Z,91887.25
2019-01-27T15:28:13.556Z,91887.91
2019-01-27T15:30:42.134Z,91894.66
2019-01-27T15:33:11.568Z,91886.56
2019-01-27T15:35:40.211Z,91888.47
2019-01-27T15:38:08.771Z,91899.27
2019-01-27T15:40:37.353Z,91890.52
2019-01-27T15:43:05.911Z,91906.46
2019-01-27T15:45:35.858Z,91903.63
2019-01-27T15:48:05.192Z,91906.45
2019-01-27T15:50:33.878Z,91906.68
2019-01-27T15:53:02.603Z,91906.52
2019-01-27T15:55:31.190Z,91911.98
2019-01-27T15:57:59.793Z,91919.23
2019-01-27T16:00:29.734Z,91907.84
2019-01-27T16:02:58.624Z,91911.05
2019-01-27T16:05:27.506Z,91911.22
2019-01-27T16:07:56.373Z,91917.44
2019-01-27T16:10:25.220Z,91912.05
2019-01-27T16:12:54.579Z,91913.40
2019-01-27T16:15:28.424Z,91914.23
2019-01-27T16:17:57.062Z,91908.85
2019-01-27T16:20:26.103Z,91912.33
2019-01-27T16:23:13.797Z,91913.02
2019-01-27T16:25:42.804Z,91915.69
2019-01-27T16:28:11.445Z,91912.73
2019-01-27T16:30:58.642Z,91918.80
2019-01-27T16:33:36.641Z,91915.06
2019-01-27T16:36:05.531Z,91917.88
2019-01-27T16:38:34.091Z,91914.56
2019-01-27T16:41:02.703Z,91917.42
2019-01-27T16:43:31.573Z,91911.61
2019-01-27T16:46:00.246Z,91919.05
2019-01-27T16:48:28.788Z,91924.86
2019-01-27T16:50:57.334Z,91925.02
2019-01-27T16:53:26.145Z,91925.05
2019-01-27T16:55:54.749Z,91927.88
2019-01-27T16:58:23.348Z,91928.50
2019-01-27T17:00:51.901Z,91925.05
2019-01-27T17:03:20.759Z,91927.06
2019-01-27T17:05:49.756Z,91929.84
2019-01-27T17:08:18.262Z,91936.87
2019-01-27T17:10:46.878Z,91932.20
2019-01-27T17:13:15.545Z,91931.84
2019-01-27T17:15:44.416Z,91936.98
2019-01-27T17:18:13.265Z,91944.86
2019-01-27T17:20:42.111Z,91943.11
2019-01-27T17:23:10.727Z,91954.78
2019-01-27T17:25:39.915Z,91952.99
2019-01-27T17:28:08.710Z,91956.14
2019-01-27T17:30:38.857Z,91957.71
2019-01-27T17:33:07.497Z,91961.61
2019-01-27T17:35:36.150Z,91958.24
2019-01-27T17:38:05.806Z,91964.41
2019-01-27T18:43:40.689Z,92075.45
2019-01-27T18:46:09.399Z,92077.28
2019-01-27T18:48:38.109Z,92085.81
2019-01-27T18:51:07.147Z,92078.08
2019-01-27T18:53:51.072Z,92071.52
2019-01-27T18:56:28.095Z,92079.89
2019-01-27T18:59:21.907Z,92090.14
2019-01-27T19:02:05.709Z,92098.07
2019-01-27T19:04:53.326Z,92100.77
2019-01-27T19:07:28.001Z,92105.83
2019-01-27T19:10:14.438Z,92103.91
2019-01-27T19:13:08.454Z,92107.38
2019-01-27T19:15:54.570Z,92104.39
2019-01-27T19:18:29.394Z,92109.73
2019-01-27T19:21:24.621Z,92113.82
2019-01-27T19:24:10.737Z,92111.70
2019-01-27T19:27:16.631Z,92111.69
2019-01-27T19:30:02.816Z,92120.47
2019-01-27T19:32:38.733Z,92129.95
2019-01-27T19:35:36.708Z,92123.12
2019-01-27T19:38:23.545Z,92124.96
2019-01-27T19:41:10.104Z,92136.68
2019-01-27T19:44:02.654Z,92132.42
2019-01-27T19:47:07.998Z,92135.47
2019-01-27T19:49:53.141Z,92139.56
2019-01-27T19:52:33.130Z,92132.67
2019-01-27T19:55:27.170Z,92134.65
2019-01-27T19:58:09.654Z,92141.03
2019-01-27T20:00:46.397Z,92152.59
2019-01-27T20:03:37.096Z,92141.88
2019-01-27T20:06:16.671Z,92141.51
2019-01-27T20:08:59.763Z,92147.58
2019-01-27T20:11:45.817Z,92152.80
2019-01-27T20:14:42.543Z,92155.34
2019-01-27T20:17:27.048Z,92153.05
2019-01-27T20:20:22.407Z,92156.52
2019-01-27T20:22:56.422Z,92152.55
2019-01-27T20:25:53.583Z,92155.47
2019-01-27T20:28:41.218Z,92172.70
2019-01-27T20:31:38.158Z,92184.39
2019-01-27T20:34:16.993Z,92182.24
2019-01-27T20:36:53.494Z,92191.66
2019-01-27T20:39:43.268Z,92188.93
2019-01-27T20:42:23.956Z,92186.14
2019-01-27T20:44:59.951Z,92187.82
2019-01-27T20:48:06.169Z,92191.30
2019-01-27T20:50:56.770Z,92198.39
2019-01-27T20:53:32.709Z,92202.56
2019-01-27T20:56:29.551Z,92208.66
2019-01-27T20:59:05.805Z,92216.03
2019-01-27T21:01:50.757Z,92211.95
2019-01-27T21:04:24.978Z,92217.80
2019-01-27T21:07:02.234Z,92219.03
2019-01-27T21:09:49.780Z,92215.01
2019-01-27T21:12:36.331Z,92219.37
2019-01-27T21:15:22.342Z,92220.20
2019-01-27T21:17:59.761Z,92229.41
2019-01-27T21:20:28.396Z,92231.45
2019-01-27T21:22:57.001Z,92229.28
2019-01-27T21:25:25.588Z,92233.77
2019-01-27T21:27:55.094Z,92237.31
2019-01-27T21:30:23.753Z,92240.30
2019-01-27T21:32:55.725Z,92239.75
2019-01-27T21:35:23.884Z,92239.56
2019-01-27T21:37:52.466Z,92244.80
2019-01-27T21:40:21.111Z,92243.74
2019-01-27T21:42:49.686Z,92247.03
2019-01-27T21:45:18.934Z,92244.47
2019-01-27T21:47:47.673Z,92258.41
2019-01-27T21:50:17.840Z,92257.37
2019-01-27T21:52:46.438Z,92260.11
2019-01-27T21:55:15.316Z,92269.58
2019-01-27T21:57:43.886Z,92258.95
2019-01-27T22:00:15.881Z,92259.30
2019-01-27T22:02:44.464Z,92254.83
2019-01-27T22:05:13.129Z,92249.01
2019-01-27T22:07:41.695Z,92252.52
2019-01-27T22:10:11.709Z,92255.44
2019-01-27T22:12:40.349Z,92254.44
2019-01-27T22:15:09.207Z,92255.16
2019-01-27T22:17:37.792Z,92254.77
2019-01-27T22:20:07.841Z,92254.44
2019-01-27T22:22:36.780Z,92252.91
2019-01-27T22:25:06.401Z,92252.83
2019-01-27T22:27:35.003Z,92254.98
2019-01-27T22:30:05.038Z,92257.61
2019-01-27T22:32:33.608Z,92257.84
2019-01-27T22:35:02.182Z,92242.47
2019-01-27T22:37:30.794Z,92247.72
2019-01-27T22:39:59.681Z,92245.77
2019-01-27T22:42:28.283Z,92249.83
2019-01-27T22:44:57.080Z,92247.53
2019-01-27T22:47:25.683Z,92256.87
2019-01-27T22:49:54.259Z,92262.95
2019-01-27T22:52:22.857Z,92269.23
2019-01-27T22:54:51.441Z,92263.48
2019-01-27T22:57:20.247Z,92267.89
2019-01-27T22:59:49.339Z,92261.84
2019-01-27T23:02:17.881Z,92270.75
2019-01-27T23:04:46.464Z,92273.36
2019-01-27T23:07:15.028Z,92268.99
2019-01-27T23:09:43.605Z,92274.83
2019-01-27T23:12:12.414Z,92279.41
2019-01-27T23:14:41.061Z,92274.71
2019-01-27T23:17:09.933Z,92275.55
2019-01-27T23:19:38.758Z,92272.33
2019-01-27T23:22:07.323Z,92275.70
2019-01-27T23:24:35.884Z,92275.57
2019-01-27T23:27:04.456Z,92276.34
2019-01-27T23:29:33.027Z,92281.30
2019-01-27T23:32:01.588Z,92284.42
2019-01-27T23:34:30.164Z,92290.47
2019-01-27T23:36:58.960Z,92289.41
2019-01-27T23:39:27.530Z,92284.33
2019-01-27T23:41:56.200Z,92292.16
2019-01-27T23:44:25.023Z,92292.04
2019-01-27T23:46:53.604Z,92289.18
2019-01-27T23:49:22.179Z,92293.70
2019-01-27T23:51:50.764Z,92290.08
2019-01-27T23:54:19.330Z,92286.02
2019-01-27T23:56:47.954Z,92285.47
2019-01-27T23:59:16.527Z,92297.17
